首页
METAR-TAF:

METAR-TAF

机场 :

Charles B. Wheeler Downtown Airport

堪薩斯城, 密蘇里州, 美国

纬度: 39-07-15N, 经度: 094-35-49W, 海拔: 231米

当前天气观测

该预报发布于45分钟前的23:54 UTC
风速3节,风向西转西南
温度 8°C
湿度 57%
气压 1015 hPa
能見度: 16.1公里
天空无云

METAR: KMKC 172354Z 25003KT 10SM CLR 08/00 A2996 RMK AO2 SLP147 T00780000 10106 20078 53001

时间: 18:39 (00:39 UTC)

预报

该预报发布于1小时和19分钟前的23:20 UTC
预报有效从18日的 00点(UTC)到 18日的 24点(UTC)
风速6节,风向西转西北
能見度: 10公里
天空无云
从 18日的 1200点(UTC)
风速8节,风向
能見度: 10公里
多云层高于10000英尺
从 18日的 1800点(UTC)
风速10节,风向西转西南
能見度: 10公里
多云层高于6000英尺

TAF: KMKC 172320Z 1800/1824 30006KT P6SM SKC FM181200 19008KT P6SM BKN100 FM181800 24010KT P6SM BKN060

超过4000个机场的气象观测和天气预报(METAR&TAF报告)。

可查询的气象台以黄色和红色小点在地图上表示。

将鼠标移到小点上方,可查看气象台名称。

然后点击查看天气观测和预报。

如需切换地图:点击带黑十字的绿色按钮放大地图;点击带横线的绿色按钮缩小地图;或者点击绿色箭头查看邻近地区的地图。


METAR-TAF: